nws-alerts: Checking more than four warning/county codes can delay the loading of your pages. You should use a cron job to get the data.
EllijayWeather Station Historical Data
Daily Summary for April 8, 2019 Units:  Metric    English   Both
Daily Weekly Monthly Yearly Custom
  High: Low: Average:
Temperature: 21.9 °C 14.3 °C 18.1 °C
Dew Point: 19.2 °C 13.7 °C 17 °C
Humidity: 99% 80% 93%
Wind Speed: 7.9km/h 0km/h 0.2km/h
Wind Gust: 11.3km/h - -
Wind- - SSE
Pressure: 1019.9 hPa 1010.7 hPa -
Precipitation: 13.46 mm    
Historical Graphs
 
 
Tabular Data for April 8, 2019
Time Temperature Dew Point Pressure Wind Wind Speed Wind Gust Humidity Rainfall Rate (Hourly) solar
00:04 15.8 °C 14.8 °C 1019.5 hPa Calm     94% 0 mm meteobridge W/m2
00:09 15.8 °C 14.8 °C 1019.9 hPa Calm     94% 0 mm meteobridge W/m2
00:14 15.7 °C 14.7 °C 1019.5 hPa Calm     94% 0 mm meteobridge W/m2
00:19 15.7 °C 14.7 °C 1019.5 hPa Calm     94% 0 mm meteobridge W/m2
00:24 15.6 °C 14.6 °C 1019.5 hPa Calm     94% 0 mm meteobridge W/m2
00:29 15.6 °C 14.8 °C 1019.5 hPa Calm     95% 0 mm meteobridge W/m2
00:34 15.5 °C 14.7 °C 1019.2 hPa Calm     95% 0 mm meteobridge W/m2
00:39 15.4 °C 14.4 °C 1019.2 hPa Calm     94% 0 mm meteobridge W/m2
00:44 15.4 °C 14.6 °C 1019.2 hPa Calm     95% 0 mm meteobridge W/m2
00:49 15.3 °C 14.5 °C 1019.5 hPa Calm     95% 0 mm meteobridge W/m2
00:54 15.3 °C 14.5 °C 1019.5 hPa Calm     95% 0 mm meteobridge W/m2
00:59 15.3 °C 14.5 °C 1019.2 hPa Calm     95% 0 mm meteobridge W/m2
01:04 15.2 °C 14.4 °C 1019.2 hPa Calm     95% 0 mm meteobridge W/m2
01:09 15.2 °C 14.4 °C 1019.2 hPa Calm     95% 0 mm meteobridge W/m2
01:14 15.1 °C 14.3 °C 1019.2 hPa Calm     95% 0 mm meteobridge W/m2
01:19 15.1 °C 14.3 °C 1019.2 hPa Calm     95% 0 mm meteobridge W/m2
01:24 15 °C 14.2 °C 1019.2 hPa Calm     95% 0 mm meteobridge W/m2
01:29 14.9 °C 14.3 °C 1019.2 hPa Calm     96% 0 mm meteobridge W/m2
01:34 14.9 °C 14.3 °C 1019.2 hPa Calm     96% 0 mm meteobridge W/m2
01:39 14.9 °C 14.3 °C 1018.8 hPa Calm     96% 0 mm meteobridge W/m2
01:44 14.9 °C 14.3 °C 1018.8 hPa Calm     96% 0 mm meteobridge W/m2
01:49 14.8 °C 14 °C 1018.8 hPa Calm     95% 0 mm meteobridge W/m2
01:54 14.8 °C 14.2 °C 1018.8 hPa Calm     96% 0 mm meteobridge W/m2
01:59 14.7 °C 14.1 °C 1018.8 hPa Calm     96% 0 mm meteobridge W/m2
02:04 14.7 °C 14.1 °C 1018.5 hPa Calm     96% 0 mm meteobridge W/m2
02:09 14.6 °C 14 °C 1018.5 hPa Calm     96% 0 mm meteobridge W/m2
02:14 14.7 °C 14.2 °C 1018.2 hPa Calm     97% 0 mm meteobridge W/m2
02:19 14.7 °C 14.2 °C 1018.2 hPa Calm     97% 0 mm meteobridge W/m2
02:24 14.7 °C 14.2 °C 1018.2 hPa Calm     97% 0 mm meteobridge W/m2
02:29 14.7 °C 14.2 °C 1018.2 hPa Calm     97% 0 mm meteobridge W/m2
02:34 14.7 °C 14.2 °C 1018.2 hPa Calm     97% 0 mm meteobridge W/m2
02:39 14.7 °C 14.2 °C 1018.2 hPa Calm     97% 0 mm meteobridge W/m2
02:44 14.6 °C 14.1 °C 1017.8 hPa Calm     97% 0 mm meteobridge W/m2
02:49 14.6 °C 14.1 °C 1017.8 hPa Calm     97% 0 mm meteobridge W/m2
02:54 14.7 °C 14.2 °C 1017.8 hPa Calm     97% 0 mm meteobridge W/m2
02:59 14.7 °C 14.2 °C 1017.8 hPa Calm     97% 0 mm meteobridge W/m2
03:04 14.7 °C 14.2 °C 1017.8 hPa Calm     97% 0 mm meteobridge W/m2
03:09 14.7 °C 14.2 °C 1017.8 hPa Calm     97% 0 mm meteobridge W/m2
03:14 14.8 °C 14.5 °C 1017.8 hPa Calm     98% 0 mm meteobridge W/m2
03:19 14.7 °C 14.2 °C 1017.8 hPa Calm     97% 0 mm meteobridge W/m2
03:24 14.6 °C 14 °C 1017.8 hPa Calm     96% 0 mm meteobridge W/m2
03:29 14.6 °C 14.1 °C 1017.8 hPa Calm     97% 0 mm meteobridge W/m2
03:34 14.6 °C 14 °C 1017.8 hPa Calm     96% 0 mm meteobridge W/m2
03:39 14.3 °C 13.7 °C 1017.8 hPa Calm     96% 0 mm meteobridge W/m2
03:44 14.3 °C 13.7 °C 1017.8 hPa Calm     96% 0 mm meteobridge W/m2
03:49 14.3 °C 13.8 °C 1017.8 hPa Calm     97% 0 mm meteobridge W/m2
03:54 14.3 °C 13.8 °C 1017.5 hPa Calm     97% 0 mm meteobridge W/m2
03:59 14.3 °C 13.8 °C 1017.5 hPa Calm     97% 0 mm meteobridge W/m2
04:04 14.4 °C 14.1 °C 1017.5 hPa Calm     98% 0 mm meteobridge W/m2
04:09 14.6 °C 14.3 °C 1017.5 hPa Calm     98% 0 mm meteobridge W/m2
04:14 14.6 °C 14.3 °C 1017.5 hPa Calm     98% 0 mm meteobridge W/m2
04:19 14.6 °C 14.3 °C 1017.5 hPa Calm     98% 0 mm meteobridge W/m2
04:24 14.7 °C 14.4 °C 1017.5 hPa Calm     98% 0 mm meteobridge W/m2
04:29 14.7 °C 14.4 °C 1017.5 hPa Calm   1.6 km/h 98% 0 mm meteobridge W/m2
04:34 14.8 °C 14.3 °C 1017.5 hPa Calm     97% 0 mm meteobridge W/m2
04:39 14.8 °C 14.5 °C 1017.2 hPa Calm     98% 0 mm meteobridge W/m2
04:44 14.8 °C 14.5 °C 1017.2 hPa Calm     98% 0 mm meteobridge W/m2
04:49 14.9 °C 14.6 °C 1017.2 hPa Calm     98% 0 mm meteobridge W/m2
04:54 15.1 °C 14.8 °C 1017.2 hPa Calm     98% 0 mm meteobridge W/m2
04:59 15.2 °C 14.9 °C 1017.2 hPa Calm     98% 0 mm meteobridge W/m2
05:04 15.4 °C 15.2 °C 1017.2 hPa Calm     99% 0 mm meteobridge W/m2
05:09 15.4 °C 15.1 °C 1016.8 hPa Calm     98% 0 mm meteobridge W/m2
05:14 15.4 °C 15.1 °C 1016.8 hPa Calm     98% 0 mm meteobridge W/m2
05:19 15.4 °C 15.1 °C 1016.8 hPa Calm     98% 0 mm meteobridge W/m2
05:24 15.4 °C 15.1 °C 1016.8 hPa Calm     98% 0 mm meteobridge W/m2
05:29 15.4 °C 14.9 °C 1016.5 hPa Calm     97% 0 mm meteobridge W/m2
05:34 15.4 °C 15.1 °C 1016.5 hPa Calm     98% 0 mm meteobridge W/m2
05:39 15.3 °C 14.8 °C 1016.5 hPa Calm     97% 0 mm meteobridge W/m2
05:44 15.4 °C 15.1 °C 1016.5 hPa Calm     98% 0 mm meteobridge W/m2
05:49 15.4 °C 15.1 °C 1016.1 hPa Calm     98% 0 mm meteobridge W/m2
05:54 15.6 °C 15.3 °C 1016.1 hPa Calm     98% 0 mm meteobridge W/m2
05:59 15.6 °C 15.3 °C 1016.1 hPa Calm     98% 0 mm meteobridge W/m2
06:04 15.7 °C 15.4 °C 1016.5 hPa Calm     98% 0 mm meteobridge W/m2
06:09 15.7 °C 15.4 °C 1016.5 hPa Calm     98% 0 mm meteobridge W/m2
06:14 15.7 °C 15.4 °C 1016.1 hPa Calm     98% 0 mm meteobridge W/m2
06:19 15.8 °C 15.5 °C 1016.1 hPa Calm     98% 0 mm meteobridge W/m2
06:24 15.8 °C 15.5 °C 1016.1 hPa Calm     98% 0 mm meteobridge W/m2
06:29 15.8 °C 15.5 °C 1016.1 hPa Calm     98% 0 mm meteobridge W/m2
06:34 15.8 °C 15.5 °C 1016.1 hPa Calm     98% 0 mm meteobridge W/m2
06:39 15.8 °C 15.5 °C 1015.8 hPa Calm     98% 0 mm meteobridge W/m2
06:44 15.9 °C 15.6 °C 1015.8 hPa Calm     98% 0 mm meteobridge W/m2
06:49 16.2 °C 16 °C 1015.8 hPa Calm     99% 0 mm meteobridge W/m2
06:54 16.4 °C 16.2 °C 1015.8 hPa Calm   3.2 km/h 99% 0 mm meteobridge W/m2
06:59 16.7 °C 16.5 °C 1015.8 hPa ESE 1.4 km/h 1.6 km/h 99% 0 mm meteobridge W/m2
07:04 17.2 °C 17 °C 1015.8 hPa Calm     99% 0 mm meteobridge W/m2
07:09 17.5 °C 17.3 °C 1015.8 hPa Calm     99% 0 mm meteobridge W/m2
07:14 17.7 °C 17.2 °C 1015.8 hPa Calm     97% 0 mm meteobridge W/m2
07:19 17.8 °C 17 °C 1015.5 hPa Calm     95% 0 mm meteobridge W/m2
07:24 17.8 °C 17 °C 1015.5 hPa Calm   1.6 km/h 95% 0 mm meteobridge W/m2
07:29 17.8 °C 17.2 °C 1015.5 hPa Calm     96% 0 mm meteobridge W/m2
07:34 18.2 °C 17.6 °C 1015.1 hPa ESE 3.2 km/h 6.4 km/h 96% 0 mm meteobridge W/m2
07:39 18.4 °C 17.4 °C 1015.1 hPa Calm     94% 0 mm meteobridge W/m2
07:44 18.7 °C 17.5 °C 1015.5 hPa Calm   1.6 km/h 93% 0 mm meteobridge W/m2
07:49 18.8 °C 17.3 °C 1015.5 hPa Calm     91% 0 mm meteobridge W/m2
07:54 18.9 °C 17.6 °C 1015.5 hPa Calm     92% 0 mm meteobridge W/m2
07:59 18.9 °C 17.7 °C 1015.5 hPa Calm   1.6 km/h 93% 0 mm meteobridge W/m2
08:04 19.1 °C 17.8 °C 1015.8 hPa Calm   1.6 km/h 92% 0 mm meteobridge W/m2
08:09 19.3 °C 17.8 °C 1015.8 hPa Calm   1.6 km/h 91% 0 mm meteobridge W/m2
08:14 19.5 °C 17.8 °C 1015.8 hPa Calm   6.4 km/h 90% 0 mm meteobridge W/m2
08:19 19.7 °C 18 °C 1015.8 hPa SE 1.4 km/h 3.2 km/h 90% 0 mm meteobridge W/m2
08:24 19.8 °C 17.9 °C 1015.8 hPa Calm   11.3 km/h 89% 0 mm meteobridge W/m2
08:29 20 °C 18 °C 1015.8 hPa SW 4.7 km/h 9.7 km/h 88% 0 mm meteobridge W/m2
08:34 20.1 °C 17.7 °C 1015.5 hPa Calm   1.6 km/h 86% 0 mm meteobridge W/m2
08:39 20 °C 17.4 °C 1015.5 hPa East 3.2 km/h 6.4 km/h 85% 0 mm meteobridge W/m2
08:44 20 °C 17.2 °C 1015.5 hPa Calm   8 km/h 84% 0 mm meteobridge W/m2
08:48 20 °C 17.2 °C 1015.5 hPa Calm   6.4 km/h 84% 0 mm meteobridge W/m2
08:54 20.1 °C 17.1 °C 1015.5 hPa Calm     83% 0 mm meteobridge W/m2
08:59 20.2 °C 17.2 °C 1015.5 hPa ESE 6.4 km/h 6.4 km/h 83% 0 mm meteobridge W/m2
09:04 20.3 °C 17.1 °C 1015.5 hPa Calm   1.6 km/h 82% 0 mm meteobridge W/m2
09:09 20.4 °C 17.2 °C 1015.5 hPa Calm     82% 0 mm meteobridge W/m2
09:14 20.4 °C 17.2 °C 1015.1 hPa South 1.4 km/h 8 km/h 82% 0 mm meteobridge W/m2
09:19 20.4 °C 17.4 °C 1015.5 hPa Calm   1.6 km/h 83% 0 mm meteobridge W/m2
09:24 20.4 °C 17.4 °C 1015.1 hPa Calm   3.2 km/h 83% 0 mm meteobridge W/m2
09:29 20.3 °C 17.3 °C 1015.1 hPa Calm   1.6 km/h 83% 0 mm meteobridge W/m2
09:34 20.4 °C 17.4 °C 1015.1 hPa Calm   6.4 km/h 83% 0 mm meteobridge W/m2
09:39 20.4 °C 17.4 °C 1015.1 hPa Calm   1.6 km/h 83% 0 mm meteobridge W/m2
09:44 20.4 °C 17.4 °C 1015.1 hPa Calm   3.2 km/h 83% 0 mm meteobridge W/m2
09:49 20.4 °C 17.4 °C 1015.1 hPa Calm   9.7 km/h 83% 0 mm meteobridge W/m2
09:54 20.5 °C 17.5 °C 1015.1 hPa Calm   8 km/h 83% 0 mm meteobridge W/m2
09:59 20.5 °C 17.5 °C 1015.5 hPa Calm   1.6 km/h 83% 0 mm meteobridge W/m2
10:04 20.6 °C 17.6 °C 1015.5 hPa Calm   1.6 km/h 83% 0 mm meteobridge W/m2
10:09 20.6 °C 17.6 °C 1015.5 hPa SE 3.2 km/h 9.7 km/h 83% 0 mm meteobridge W/m2
10:14 20.6 °C 17.6 °C 1015.5 hPa Calm   8 km/h 83% 0 mm meteobridge W/m2
10:19 20.7 °C 17.7 °C 1015.1 hPa Calm   9.7 km/h 83% 0 mm meteobridge W/m2
10:24 20.7 °C 17.7 °C 1015.5 hPa ESE 3.2 km/h 3.2 km/h 83% 0 mm meteobridge W/m2
10:29 20.8 °C 17.8 °C 1015.5 hPa West 1.4 km/h 4.8 km/h 83% 0 mm meteobridge W/m2
10:34 20.9 °C 17.9 °C 1015.5 hPa Calm   6.4 km/h 83% 0 mm meteobridge W/m2
10:39 21 °C 17.8 °C 1015.5 hPa ENE 3.2 km/h 8 km/h 82% 0 mm meteobridge W/m2
10:44 21.1 °C 17.9 °C 1015.5 hPa Calm   4.8 km/h 82% 0 mm meteobridge W/m2
10:49 21.4 °C 18.2 °C 1015.5 hPa ESE 7.9 km/h 8 km/h 82% 0 mm meteobridge W/m2
10:54 21.9 °C 18.3 °C 1015.5 hPa Calm   8 km/h 80% 0 mm meteobridge W/m2
10:59 21.9 °C 18.3 °C 1015.5 hPa Calm   1.6 km/h 80% 0 mm meteobridge W/m2
11:04 21.8 °C 18.4 °C 1015.5 hPa Calm   6.4 km/h 81% 0 mm meteobridge W/m2
11:09 21.7 °C 18.3 °C 1015.5 hPa Calm   3.2 km/h 81% 0 mm meteobridge W/m2
11:14 21.8 °C 18.4 °C 1015.5 hPa WNW 3.2 km/h 3.2 km/h 81% 0 mm meteobridge W/m2
11:19 21.9 °C 18.3 °C 1015.5 hPa Calm   6.4 km/h 80% 0 mm meteobridge W/m2
11:24 21.9 °C 18.3 °C 1015.5 hPa Calm   1.6 km/h 80% 0 mm meteobridge W/m2
11:29 21.8 °C 18.4 °C 1015.8 hPa Calm     81% 0 mm meteobridge W/m2
11:34 21.6 °C 18.2 °C 1015.8 hPa Calm   1.6 km/h 81% 0 mm meteobridge W/m2
11:39 21.5 °C 18.1 °C 1015.5 hPa Calm     81% 0 mm meteobridge W/m2
11:44 21.3 °C 18.3 °C 1015.5 hPa Calm     83% 0.25 mm meteobridge W/m2
11:49 20.9 °C 18.7 °C 1015.5 hPa Calm     87% 0.76 mm meteobridge W/m2
11:54 20.6 °C 18.9 °C 1015.5 hPa Calm     90% 0.76 mm meteobridge W/m2
11:59 20.3 °C 18.6 °C 1015.5 hPa Calm   8 km/h 90% 0.76 mm meteobridge W/m2
12:04 20.2 °C 18.7 °C 1015.5 hPa Calm   1.6 km/h 91% 0.76 mm meteobridge W/m2
12:09 20.2 °C 18.5 °C 1015.5 hPa Calm   3.2 km/h 90% 0.76 mm meteobridge W/m2
12:14 20.2 °C 18.7 °C 1015.1 hPa Calm   4.8 km/h 91% 1.02 mm meteobridge W/m2
12:19 20 °C 18.7 °C 1015.1 hPa Calm   1.6 km/h 92% 1.27 mm meteobridge W/m2
12:24 19.9 °C 18.4 °C 1015.1 hPa Calm     91% 1.27 mm meteobridge W/m2
12:29 19.7 °C 18.4 °C 1015.1 hPa Calm   1.6 km/h 92% 1.52 mm meteobridge W/m2
12:34 19.7 °C 18.5 °C 1014.8 hPa Calm     93% 1.52 mm meteobridge W/m2
12:39 19.6 °C 18.4 °C 1015.1 hPa WNW 6.4 km/h 6.4 km/h 93% 1.78 mm meteobridge W/m2
12:44 19.6 °C 18.6 °C 1015.1 hPa Calm   6.4 km/h 94% 1.78 mm meteobridge W/m2
12:49 19.6 °C 18.6 °C 1014.8 hPa Calm     94% 1.02 mm meteobridge W/m2
12:54 19.6 °C 18.8 °C 1014.8 hPa Calm     95% 1.02 mm meteobridge W/m2
12:59 19.7 °C 18.9 °C 1014.4 hPa Calm   4.8 km/h 95% 1.02 mm meteobridge W/m2
13:04 19.8 °C 19 °C 1014.4 hPa Calm   3.2 km/h 95% 1.02 mm meteobridge W/m2
13:09 20.1 °C 19.1 °C 1014.4 hPa Calm   1.6 km/h 94% 1.02 mm meteobridge W/m2
13:14 20.1 °C 18.8 °C 1014.4 hPa Calm   4.8 km/h 92% 0.76 mm meteobridge W/m2
13:19 20.2 °C 18.9 °C 1014.4 hPa Calm   1.6 km/h 92% 0.51 mm meteobridge W/m2
13:24 20.1 °C 18.9 °C 1014.1 hPa Calm     93% 0.51 mm meteobridge W/m2
13:29 20 °C 18.7 °C 1014.1 hPa Calm     92% 0.25 mm meteobridge W/m2
13:34 20 °C 18.8 °C 1013.8 hPa Calm     93% 0.25 mm meteobridge W/m2
13:39 20.2 °C 19.2 °C 1014.1 hPa Calm   1.6 km/h 94% 0.25 mm meteobridge W/m2
13:44 20.4 °C 19.1 °C 1013.8 hPa Calm   3.2 km/h 92% 0.25 mm meteobridge W/m2
13:49 20.6 °C 19.1 °C 1013.8 hPa NNE 1.4 km/h 3.2 km/h 91% 0.25 mm meteobridge W/m2
13:54 20.8 °C 19.1 °C 1013.8 hPa Calm   1.6 km/h 90% 0.25 mm meteobridge W/m2
13:59 20.9 °C 19 °C 1013.4 hPa Calm   1.6 km/h 89% 0.25 mm meteobridge W/m2
14:04 20.9 °C 18.7 °C 1013.8 hPa Calm   9.7 km/h 87% 0.25 mm meteobridge W/m2
14:09 20.8 °C 18.7 °C 1013.4 hPa Calm   1.6 km/h 88% 0.25 mm meteobridge W/m2
14:14 20.8 °C 19.1 °C 1013.4 hPa Calm     90% 0.25 mm meteobridge W/m2
14:19 20.8 °C 19.1 °C 1013.4 hPa Calm     90% 0.25 mm meteobridge W/m2
14:24 20.7 °C 19 °C 1013.1 hPa Calm     90% 0.25 mm meteobridge W/m2
14:29 20.8 °C 18.9 °C 1013.1 hPa Calm     89% 0.25 mm meteobridge W/m2
14:34 21.1 °C 19.2 °C 1013.1 hPa Calm   1.6 km/h 89% 0.25 mm meteobridge W/m2
14:39 21.2 °C 19.1 °C 1012.8 hPa Calm     88% 0 mm meteobridge W/m2
14:44 21.3 °C 19 °C 1012.8 hPa Calm   1.6 km/h 87% 0 mm meteobridge W/m2
14:49 21.3 °C 18.9 °C 1012.8 hPa Calm     86% 0 mm meteobridge W/m2
14:54 21.3 °C 19 °C 1012.8 hPa Calm     87% 0 mm meteobridge W/m2
14:59 21.3 °C 18.7 °C 1012.4 hPa Calm     85% 0 mm meteobridge W/m2
15:04 21.4 °C 19.1 °C 1012.4 hPa Calm     87% 0 mm meteobridge W/m2
15:09 21.6 °C 19.2 °C 1012.1 hPa Calm     86% 0 mm meteobridge W/m2
15:14 21.7 °C 18.5 °C 1012.1 hPa Calm     82% 0 mm meteobridge W/m2
15:19 21.8 °C 18.8 °C 1012.1 hPa Calm     83% 0 mm meteobridge W/m2
15:24 21.9 °C 18.9 °C 1012.1 hPa Calm     83% 0 mm meteobridge W/m2
15:29 21.8 °C 18.4 °C 1011.7 hPa Calm     81% 0 mm meteobridge W/m2
15:34 21.8 °C 18.4 °C 1011.7 hPa Calm   3.2 km/h 81% 0 mm meteobridge W/m2
15:39 21.6 °C 18.8 °C 1011.7 hPa Calm     84% 0 mm meteobridge W/m2
15:44 21.1 °C 18.7 °C 1012.1 hPa Calm     86% 0.25 mm meteobridge W/m2
15:49 20.6 °C 18.7 °C 1012.4 hPa Calm   8 km/h 89% 4.83 mm meteobridge W/m2
15:54 19.9 °C 18.2 °C 1012.1 hPa Calm     90% 6.35 mm meteobridge W/m2
15:59 19.6 °C 18.3 °C 1011.7 hPa Calm     92% 6.35 mm meteobridge W/m2
16:04 19.4 °C 18.2 °C 1012.1 hPa Calm     93% 6.35 mm meteobridge W/m2
16:09 19.3 °C 18.3 °C 1011.7 hPa Calm     94% 6.6 mm meteobridge W/m2
16:14 19.2 °C 18.2 °C 1011.7 hPa Calm     94% 7.11 mm meteobridge W/m2
16:19 19.1 °C 18.3 °C 1011.7 hPa Calm     95% 8.64 mm meteobridge W/m2
16:24 19 °C 18.3 °C 1011.7 hPa Calm     96% 10.41 mm meteobridge W/m2
16:29 18.9 °C 18.2 °C 1011.7 hPa Calm   1.6 km/h 96% 10.41 mm meteobridge W/m2
16:34 18.9 °C 18.2 °C 1011.7 hPa Calm     96% 10.41 mm meteobridge W/m2
16:39 18.8 °C 18.1 °C 1011.7 hPa Calm     96% 10.41 mm meteobridge W/m2
16:44 18.8 °C 18.1 °C 1011.7 hPa ESE 3.2 km/h 3.2 km/h 96% 10.16 mm meteobridge W/m2
16:49 18.8 °C 18.1 °C 1011.4 hPa Calm     96% 5.59 mm meteobridge W/m2
16:54 18.8 °C 18.1 °C 1011.7 hPa Calm   1.6 km/h 96% 4.32 mm meteobridge W/m2
16:59 18.8 °C 18.1 °C 1011.7 hPa Calm     96% 4.06 mm meteobridge W/m2
17:04 18.8 °C 18.1 °C 1011.4 hPa Calm     96% 4.06 mm meteobridge W/m2
17:09 18.7 °C 18 °C 1011.4 hPa Calm     96% 3.81 mm meteobridge W/m2
17:14 18.7 °C 18 °C 1011.4 hPa Calm     96% 3.81 mm meteobridge W/m2
17:19 18.7 °C 18.2 °C 1011.4 hPa Calm     97% 2.29 mm meteobridge W/m2
17:24 18.6 °C 18.1 °C 1011.4 hPa Calm     97% 0.51 mm meteobridge W/m2
17:29 18.6 °C 18.1 °C 1011.4 hPa Calm     97% 0.51 mm meteobridge W/m2
17:34 18.6 °C 18.1 °C 1011.1 hPa Calm     97% 0.51 mm meteobridge W/m2
17:39 18.6 °C 18.1 °C 1011.1 hPa Calm     97% 0.51 mm meteobridge W/m2
17:44 18.6 °C 18.1 °C 1011.1 hPa Calm     97% 0.51 mm meteobridge W/m2
17:49 18.6 °C 18.1 °C 1011.1 hPa Calm     97% 0.51 mm meteobridge W/m2
17:54 18.6 °C 18.1 °C 1011.1 hPa Calm     97% 0.51 mm meteobridge W/m2
17:59 18.7 °C 18.2 °C 1011.1 hPa Calm   1.6 km/h 97% 0.51 mm meteobridge W/m2
18:04 18.7 °C 18.2 °C 1011.1 hPa Calm     97% 0.51 mm meteobridge W/m2
18:09 18.7 °C 18.2 °C 1011.1 hPa Calm     97% 0.51 mm meteobridge W/m2
18:14 18.8 °C 18.3 °C 1011.1 hPa Calm   1.6 km/h 97% 0 mm meteobridge W/m2
18:19 18.8 °C 18.3 °C 1010.7 hPa Calm     97% 0 mm meteobridge W/m2
18:24 18.8 °C 18.3 °C 1011.1 hPa Calm     97% 0 mm meteobridge W/m2
18:29 18.8 °C 18.1 °C 1011.1 hPa Calm     96% 0 mm meteobridge W/m2
18:34 18.9 °C 18.4 °C 1011.1 hPa Calm     97% 0 mm meteobridge W/m2
18:39 18.9 °C 18.4 °C 1011.1 hPa Calm   1.6 km/h 97% 0 mm meteobridge W/m2
18:44 19 °C 18.3 °C 1011.1 hPa Calm     96% 0 mm meteobridge W/m2
18:49 19 °C 18.3 °C 1011.1 hPa Calm     96% 0 mm meteobridge W/m2
18:54 19 °C 18.3 °C 1011.1 hPa Calm     96% 0 mm meteobridge W/m2
18:59 19 °C 18.3 °C 1011.1 hPa Calm     96% 0 mm meteobridge W/m2
19:04 18.9 °C 18.2 °C 1011.1 hPa Calm     96% 0 mm meteobridge W/m2
19:09 18.8 °C 18.1 °C 1011.1 hPa Calm     96% 0 mm meteobridge W/m2
19:14 18.8 °C 18.1 °C 1011.1 hPa Calm     96% 0 mm meteobridge W/m2
19:19 18.7 °C 18 °C 1011.1 hPa Calm     96% 0 mm meteobridge W/m2
19:24 18.7 °C 18 °C 1011.1 hPa Calm     96% 0 mm meteobridge W/m2
19:29 18.7 °C 18 °C 1010.7 hPa Calm     96% 0 mm meteobridge W/m2
19:34 18.6 °C 17.9 °C 1010.7 hPa Calm     96% 0 mm meteobridge W/m2
19:39 18.6 °C 17.9 °C 1010.7 hPa Calm     96% 0 mm meteobridge W/m2
19:44 18.6 °C 17.9 °C 1010.7 hPa Calm     96% 0 mm meteobridge W/m2
19:49 18.5 °C 17.8 °C 1010.7 hPa Calm     96% 0 mm meteobridge W/m2
19:54 18.4 °C 17.8 °C 1010.7 hPa Calm     96% 0 mm meteobridge W/m2
19:59 18.4 °C 17.9 °C 1010.7 hPa Calm     97% 0 mm meteobridge W/m2
20:04 18.4 °C 17.9 °C 1011.1 hPa Calm     97% 0 mm meteobridge W/m2
20:09 18.4 °C 17.9 °C 1011.1 hPa Calm     97% 0 mm meteobridge W/m2
20:14 18.4 °C 17.9 °C 1011.1 hPa Calm     97% 0 mm meteobridge W/m2
20:19 18.3 °C 17.8 °C 1010.7 hPa Calm     97% 0 mm meteobridge W/m2
20:24 18.3 °C 17.8 °C 1011.1 hPa Calm     97% 0 mm meteobridge W/m2
20:29 18.3 °C 17.8 °C 1011.1 hPa Calm     97% 0 mm meteobridge W/m2
20:34 18.2 °C 17.7 °C 1011.1 hPa Calm     97% 0 mm meteobridge W/m2
20:39 18.2 °C 17.7 °C 1011.1 hPa Calm     97% 0 mm meteobridge W/m2
20:44 18.1 °C 17.6 °C 1011.1 hPa Calm     97% 0 mm meteobridge W/m2
20:49 18.1 °C 17.6 °C 1011.4 hPa Calm     97% 0 mm meteobridge W/m2
20:54 18.1 °C 17.6 °C 1011.4 hPa Calm     97% 0 mm meteobridge W/m2
20:59 18.1 °C 17.6 °C 1011.4 hPa Calm     97% 0 mm meteobridge W/m2
21:04 18 °C 17.5 °C 1011.4 hPa Calm     97% 0 mm meteobridge W/m2
21:09 17.9 °C 17.6 °C 1011.4 hPa Calm     98% 0 mm meteobridge W/m2
21:14 17.9 °C 17.4 °C 1011.7 hPa Calm     97% 0 mm meteobridge W/m2
21:19 17.8 °C 17.3 °C 1011.4 hPa Calm     97% 0 mm meteobridge W/m2
21:24 17.8 °C 17.3 °C 1011.4 hPa Calm     97% 0 mm meteobridge W/m2
21:29 17.7 °C 17.4 °C 1011.7 hPa Calm     98% 0 mm meteobridge W/m2
21:34 17.7 °C 17.4 °C 1011.7 hPa Calm     98% 0 mm meteobridge W/m2
21:39 17.7 °C 17.4 °C 1011.7 hPa Calm     98% 0 mm meteobridge W/m2
21:44 17.7 °C 17.4 °C 1011.4 hPa Calm     98% 0 mm meteobridge W/m2
21:49 17.6 °C 17.3 °C 1011.7 hPa Calm     98% 0 mm meteobridge W/m2
21:54 17.6 °C 17.3 °C 1011.7 hPa Calm     98% 0 mm meteobridge W/m2
21:59 17.6 °C 17.3 °C 1011.7 hPa Calm     98% 0 mm meteobridge W/m2
22:04 17.5 °C 17.2 °C 1011.7 hPa Calm     98% 0 mm meteobridge W/m2
22:09 17.4 °C 17.1 °C 1011.7 hPa Calm     98% 0 mm meteobridge W/m2
22:14 17.4 °C 17.1 °C 1011.7 hPa Calm     98% 0 mm meteobridge W/m2
22:19 17.4 °C 17.1 °C 1011.7 hPa Calm     98% 0 mm meteobridge W/m2
22:24 17.4 °C 17.1 °C 1011.7 hPa Calm     98% 0 mm meteobridge W/m2
22:29 17.4 °C 17.1 °C 1011.7 hPa Calm     98% 0 mm meteobridge W/m2
22:34 17.3 °C 17 °C 1011.7 hPa Calm     98% 0 mm meteobridge W/m2
22:39 17.3 °C 17 °C 1011.7 hPa Calm     98% 0 mm meteobridge W/m2
22:44 17.3 °C 17 °C 1011.7 hPa Calm     98% 0 mm meteobridge W/m2
22:49 17.2 °C 16.9 °C 1011.7 hPa Calm     98% 0 mm meteobridge W/m2
22:54 17.2 °C 16.9 °C 1011.7 hPa Calm     98% 0 mm meteobridge W/m2
22:59 17.2 °C 16.9 °C 1011.7 hPa Calm     98% 0 mm meteobridge W/m2
23:04 17.2 °C 16.9 °C 1011.7 hPa Calm     98% 0 mm meteobridge W/m2
23:09 17.2 °C 16.9 °C 1011.7 hPa Calm     98% 0 mm meteobridge W/m2
23:14 17.2 °C 16.9 °C 1011.7 hPa Calm     98% 0 mm meteobridge W/m2
23:19 17.1 °C 16.8 °C 1011.7 hPa Calm     98% 0 mm meteobridge W/m2
23:24 17.2 °C 16.9 °C 1011.7 hPa Calm     98% 0 mm meteobridge W/m2
23:29 17.2 °C 16.9 °C 1011.7 hPa Calm     98% 0 mm meteobridge W/m2
23:34 17.2 °C 17 °C 1011.7 hPa Calm     99% 0 mm meteobridge W/m2
23:39 17.2 °C 16.9 °C 1011.7 hPa Calm     98% 0 mm meteobridge W/m2
23:44 17.1 °C 16.8 °C 1011.7 hPa Calm     98% 0 mm meteobridge W/m2
23:49 17.1 °C 16.8 °C 1011.7 hPa Calm     98% 0 mm meteobridge W/m2
23:54 17.1 °C 16.8 °C 1011.7 hPa Calm     98% 0 mm meteobridge W/m2
23:59 17 °C 16.7 °C 1011.7 hPa Calm     98% 0.51 mm meteobridge W/m2
EllijayWeather
Compliments of Weather Underground - 2.5 mb